Time;durP1;ratioP1;P1;durP2;ratioP2;P2;SDS_P1;SDS_P2;PMS_P1;PMS_P2;Temp;Humidity;BMP_temperature;BMP_pressure;BME280_temperature;BME280_humidity;BME280_pressure;Samples;Min_cycle;Max_cycle;Signal;HPM_P1;HPM_P2
2023/09/18 00:02:26;;;;;;;24.23;17.50;;;;;;;;;;5074518;28;20236;-78
2023/09/18 00:04:53;;;;;;;20.43;15.73;;;;;;;;;;5056391;28;20203;-78
2023/09/18 00:07:37;;;;;;;18.73;14.27;;;;;;;;;;5074668;28;20237;-78
2023/09/18 00:14:03;;;;;;;20.60;15.27;;;;;;;;;;5074238;28;20237;-79
2023/09/18 00:16:31;;;;;;;21.53;15.87;;;;;;;;;;5056051;28;20217;-78
2023/09/18 00:19:17;;;;;;;21.23;15.43;;;;;;;;;;5075023;28;20162;-79
2023/09/18 00:21:44;;;;;;;20.23;15.07;;;;;;;;;;5073766;28;20174;-78
2023/09/18 00:28:22;;;;;;;24.17;16.93;;;;;;;;;;5074002;28;20188;-79
2023/09/18 00:30:49;;;;;;;28.43;19.47;;;;;;;;;;5073976;28;20263;-78
2023/09/18 00:33:19;;;;;;;25.90;16.73;;;;;;;;;;5074041;28;20182;-79
2023/09/18 00:35:49;;;;;;;21.80;15.70;;;;;;;;;;5023725;28;20211;-78
2023/09/18 00:38:33;;;;;;;18.93;15.13;;;;;;;;;;5036051;28;20297;-78
2023/09/18 00:41:00;;;;;;;23.37;17.03;;;;;;;;;;5054324;28;20286;-78
2023/09/18 00:47:38;;;;;;;25.67;16.63;;;;;;;;;;5053768;28;20173;-78
2023/09/18 00:50:06;;;;;;;20.30;14.73;;;;;;;;;;5053825;28;20273;-78
2023/09/18 01:00:44;;;;;;;20.73;16.13;;;;;;;;;;5053678;28;20250;-78
2023/09/18 01:03:11;;;;;;;23.97;16.53;;;;;;;;;;5053675;28;20210;-78
2023/09/18 01:05:39;;;;;;;23.20;15.73;;;;;;;;;;5035312;28;20248;-78
2023/09/18 01:08:05;;;;;;;21.67;16.10;;;;;;;;;;5056143;28;20202;-78
2023/09/18 01:43:11;;;;;;;23.37;17.60;;;;;;;;;;5057399;28;20197;-78
2023/09/18 01:45:56;;;;;;;24.03;17.33;;;;;;;;;;5039352;28;20678;-78
2023/09/18 01:52:18;;;;;;;23.87;16.50;;;;;;;;;;5056682;28;20643;-78
2023/09/18 01:54:44;;;;;;;19.23;14.90;;;;;;;;;;5039244;28;20220;-78
2023/09/18 01:57:12;;;;;;;19.90;14.37;;;;;;;;;;5057186;28;20202;-78
2023/09/18 02:03:41;;;;;;;16.53;13.13;;;;;;;;;;5056603;28;20205;-78
2023/09/18 02:06:28;;;;;;;21.13;13.87;;;;;;;;;;5039007;28;20187;-78
2023/09/18 02:12:48;;;;;;;24.33;14.50;;;;;;;;;;5056592;28;20154;-78
2023/09/18 02:15:16;;;;;;;26.73;12.87;;;;;;;;;;5048740;28;20633;-78
2023/09/18 02:21:42;;;;;;;21.20;14.93;;;;;;;;;;5056163;28;20179;-79
2023/09/18 02:24:09;;;;;;;18.00;13.03;;;;;;;;;;5056956;28;20229;-78
2023/09/18 02:26:36;;;;;;;17.80;12.50;;;;;;;;;;5038239;28;20199;-78
2023/09/18 02:29:04;;;;;;;17.47;12.93;;;;;;;;;;5022361;28;20244;-82
2023/09/18 02:35:30;;;;;;;13.67;11.07;;;;;;;;;;5056300;28;20565;-77
2023/09/18 02:37:59;;;;;;;15.60;11.20;;;;;;;;;;5038146;28;20273;-78
2023/09/18 02:44:20;;;;;;;15.57;10.97;;;;;;;;;;5059536;28;20204;-80
2023/09/18 02:46:47;;;;;;;19.23;13.00;;;;;;;;;;5057519;28;20187;-82
2023/09/18 02:49:16;;;;;;;32.30;12.97;;;;;;;;;;5042889;28;20221;-83
2023/09/18 02:51:43;;;;;;;41.70;9.80;;;;;;;;;;5040336;28;20197;-82
2023/09/18 02:54:10;;;;;;;113.73;12.23;;;;;;;;;;5041665;28;20577;-80
2023/09/18 02:56:38;;;;;;;16.37;11.73;;;;;;;;;;5057648;28;20226;-77
2023/09/18 02:59:07;;;;;;;16.17;12.47;;;;;;;;;;5038460;28;20187;-77
2023/09/18 03:05:33;;;;;;;21.63;10.97;;;;;;;;;;5055852;28;20208;-76
2023/09/18 03:12:07;;;;;;;64.77;10.83;;;;;;;;;;5056174;28;20249;-82
2023/09/18 03:14:37;;;;;;;51.27;6.90;;;;;;;;;;5038319;28;20190;-77
2023/09/18 03:21:04;;;;;;;16.17;11.30;;;;;;;;;;5057891;28;20197;-77
2023/09/18 03:23:31;;;;;;;17.27;10.67;;;;;;;;;;5040054;28;20213;-79
2023/09/18 03:29:52;;;;;;;9.70;7.77;;;;;;;;;;5057163;28;20610;-75
2023/09/18 03:40:11;;;;;;;19.80;10.70;;;;;;;;;;5058042;28;20162;-77
2023/09/18 03:42:39;;;;;;;15.80;10.50;;;;;;;;;;5038981;28;20258;-76
2023/09/18 03:45:07;;;;;;;12.37;9.17;;;;;;;;;;5040888;28;20186;-78
2023/09/18 03:47:37;;;;;;;10.47;7.47;;;;;;;;;;5038668;28;20220;-75
2023/09/18 03:50:10;;;;;;;17.33;7.17;;;;;;;;;;5026179;28;20222;-82
2023/09/18 04:00:43;;;;;;;14.10;8.13;;;;;;;;;;5056516;28;20176;-83
2023/09/18 04:03:11;;;;;;;12.50;8.03;;;;;;;;;;5041880;28;20198;-84
2023/09/18 04:05:39;;;;;;;12.40;8.23;;;;;;;;;;5061909;28;20175;-83
2023/09/18 04:12:06;;;;;;;17.53;9.43;;;;;;;;;;5055564;28;20158;-80
2023/09/18 04:14:33;;;;;;;25.37;9.60;;;;;;;;;;5022793;28;20197;-75
2023/09/18 04:17:01;;;;;;;32.10;11.10;;;;;;;;;;5057294;28;20328;-81
2023/09/18 04:19:30;;;;;;;23.33;10.80;;;;;;;;;;5038858;28;20202;-81
2023/09/18 04:22:00;;;;;;;17.93;11.40;;;;;;;;;;5023082;28;20653;-82
2023/09/18 04:24:30;;;;;;;32.07;10.33;;;;;;;;;;5039477;28;20255;-81
2023/09/18 04:27:02;;;;;;;21.63;8.40;;;;;;;;;;5039754;28;20233;-82
2023/09/18 04:29:29;;;;;;;16.70;7.83;;;;;;;;;;5039216;28;20201;-81
2023/09/18 04:31:57;;;;;;;23.27;7.70;;;;;;;;;;5054614;28;20187;-81
2023/09/18 04:34:29;;;;;;;15.97;9.40;;;;;;;;;;5038020;28;20202;-81
2023/09/18 04:36:59;;;;;;;17.90;10.10;;;;;;;;;;5039072;28;20217;-81
2023/09/18 04:39:30;;;;;;;12.93;9.07;;;;;;;;;;5038788;28;20214;-81
2023/09/18 04:41:58;;;;;;;15.03;8.97;;;;;;;;;;5037997;28;20259;-82
2023/09/18 04:44:27;;;;;;;17.60;10.47;;;;;;;;;;5038327;28;20178;-74
2023/09/18 04:46:57;;;;;;;18.13;10.40;;;;;;;;;;5037599;28;20195;-81
2023/09/18 04:49:28;;;;;;;18.17;10.30;;;;;;;;;;5037786;28;20217;-79
2023/09/18 04:51:56;;;;;;;18.67;10.93;;;;;;;;;;5037358;28;20269;-80
2023/09/18 04:54:24;;;;;;;19.63;11.27;;;;;;;;;;5039952;28;20218;-84
2023/09/18 05:00:57;;;;;;;19.07;9.90;;;;;;;;;;5054990;28;20258;-82
2023/09/18 05:03:29;;;;;;;16.90;10.17;;;;;;;;;;5038368;28;20194;-75
2023/09/18 05:06:00;;;;;;;15.33;9.80;;;;;;;;;;5036982;28;20228;-73
2023/09/18 05:08:27;;;;;;;13.57;8.63;;;;;;;;;;5020531;28;20360;-77
2023/09/18 05:10:54;;;;;;;15.60;9.90;;;;;;;;;;5037143;28;20206;-76
2023/09/18 05:17:28;;;;;;;18.63;9.97;;;;;;;;;;5047002;28;20225;-76
2023/09/18 05:19:56;;;;;;;21.23;10.17;;;;;;;;;;5036871;28;20658;-75
2023/09/18 05:22:23;;;;;;;24.33;10.43;;;;;;;;;;5036412;28;20194;-76
2023/09/18 05:28:51;;;;;;;21.63;10.40;;;;;;;;;;5055610;28;20158;-78
2023/09/18 05:31:19;;;;;;;31.70;11.60;;;;;;;;;;5037212;28;20190;-76
2023/09/18 05:33:46;;;;;;;26.00;10.60;;;;;;;;;;5055369;28;20212;-75
2023/09/18 05:40:13;;;;;;;17.67;10.17;;;;;;;;;;5054592;28;20347;-75
2023/09/18 05:46:41;;;;;;;18.67;10.00;;;;;;;;;;5055054;28;20196;-79
2023/09/18 05:53:08;;;;;;;13.30;9.67;;;;;;;;;;5055458;28;20205;-78
2023/09/18 05:55:37;;;;;;;17.80;10.93;;;;;;;;;;5025361;28;20219;-82
2023/09/18 05:58:06;;;;;;;17.53;11.77;;;;;;;;;;5060594;28;20234;-80
2023/09/18 06:04:36;;;;;;;15.73;12.07;;;;;;;;;;5058671;28;20572;-80
2023/09/18 06:07:04;;;;;;;15.63;12.43;;;;;;;;;;5057595;28;20182;-80
2023/09/18 06:13:47;;;;;;;15.57;11.33;;;;;;;;;;5057990;28;20181;-77
2023/09/18 06:20:15;;;;;;;19.90;15.10;;;;;;;;;;5080881;28;20158;-86
2023/09/18 06:26:44;;;;;;;18.83;13.87;;;;;;;;;;5081008;28;20173;-84
2023/09/18 06:29:13;;;;;;;18.93;15.17;;;;;;;;;;5045922;28;20258;-84
2023/09/18 06:31:40;;;;;;;18.53;14.53;;;;;;;;;;5059654;28;20264;-81
2023/09/18 06:34:10;;;;;;;20.53;15.83;;;;;;;;;;5044224;28;20186;-83
2023/09/18 06:36:37;;;;;;;20.37;15.57;;;;;;;;;;5062691;28;20198;-80
2023/09/18 06:39:05;;;;;;;20.57;15.73;;;;;;;;;;5044685;28;20625;-84
2023/09/18 06:41:32;;;;;;;23.07;16.97;;;;;;;;;;5076921;28;20709;-73
2023/09/18 06:44:02;;;;;;;22.57;17.03;;;;;;;;;;5027589;28;20198;-75
2023/09/18 06:50:31;;;;;;;23.03;15.87;;;;;;;;;;5078240;28;20153;-75
2023/09/18 06:57:03;;;;;;;22.67;17.40;;;;;;;;;;5079911;28;20309;-83
2023/09/18 07:03:40;;;;;;;20.87;13.60;;;;;;;;;;5078006;28;20249;-83
2023/09/18 07:10:08;;;;;;;17.20;12.83;;;;;;;;;;5080937;28;20296;-82
2023/09/18 07:16:36;;;;;;;15.27;11.17;;;;;;;;;;5078279;28;20251;-78
2023/09/18 07:23:05;;;;;;;13.40;11.17;;;;;;;;;;5078340;28;20225;-84
2023/09/18 07:25:33;;;;;;;11.97;10.63;;;;;;;;;;5044639;28;20273;-82
2023/09/18 07:31:53;;;;;;;13.87;10.00;;;;;;;;;;5075606;28;20632;-76
2023/09/18 07:34:20;;;;;;;12.90;10.53;;;;;;;;;;5057621;28;20190;-77
2023/09/18 07:40:47;;;;;;;12.40;10.23;;;;;;;;;;5075183;28;20150;-76
2023/09/18 07:43:15;;;;;;;13.83;9.53;;;;;;;;;;5040747;28;20200;-76
2023/09/18 07:49:36;;;;;;;12.77;10.07;;;;;;;;;;5074942;28;20679;-76
2023/09/18 07:52:06;;;;;;;12.37;10.10;;;;;;;;;;5075872;28;20222;-75
2023/09/18 07:54:33;;;;;;;11.73;9.80;;;;;;;;;;5057815;28;20189;-75
2023/09/18 07:57:09;;;;;;;12.13;9.37;;;;;;;;;;5041019;28;20226;-75
2023/09/18 07:59:36;;;;;;;11.00;9.70;;;;;;;;;;5058029;28;20176;-76
2023/09/18 08:02:03;;;;;;;14.20;9.17;;;;;;;;;;5074936;28;20235;-76
2023/09/18 08:04:34;;;;;;;10.40;8.33;;;;;;;;;;5057429;28;20192;-75
2023/09/18 08:07:18;;;;;;;9.97;7.77;;;;;;;;;;5058425;28;20177;-75
2023/09/18 08:09:47;;;;;;;9.57;6.97;;;;;;;;;;5074417;28;20250;-75
2023/09/18 08:12:14;;;;;;;10.57;7.07;;;;;;;;;;5040366;28;20194;-76
2023/09/18 08:14:41;;;;;;;10.53;7.80;;;;;;;;;;5074806;28;20207;-75
2023/09/18 08:17:08;;;;;;;8.93;6.23;;;;;;;;;;5056447;28;20224;-75
2023/09/18 08:19:37;;;;;;;12.20;6.43;;;;;;;;;;5057553;28;20204;-76
2023/09/18 08:26:03;;;;;;;8.90;6.20;;;;;;;;;;5073440;28;20545;-75
2023/09/18 08:28:30;;;;;;;8.83;6.80;;;;;;;;;;5040343;28;20611;-75
2023/09/18 08:30:58;;;;;;;6.73;6.03;;;;;;;;;;5074188;28;20278;-75
2023/09/18 08:33:26;;;;;;;7.30;6.23;;;;;;;;;;5074676;28;20240;-76
2023/09/18 08:35:52;;;;;;;7.83;5.97;;;;;;;;;;5074756;28;20190;-75
2023/09/18 08:42:14;;;;;;;7.27;6.10;;;;;;;;;;5074880;28;20148;-74
2023/09/18 08:44:41;;;;;;;10.27;5.77;;;;;;;;;;5057247;28;20181;-75
2023/09/18 08:47:08;;;;;;;6.73;5.60;;;;;;;;;;5040341;28;20561;-74
2023/09/18 08:49:35;;;;;;;8.97;5.60;;;;;;;;;;5074888;28;20237;-75
2023/09/18 08:52:19;;;;;;;7.80;5.37;;;;;;;;;;5074089;28;20245;-74
2023/09/18 08:54:46;;;;;;;7.37;5.40;;;;;;;;;;5073943;28;20209;-75
2023/09/18 08:57:13;;;;;;;7.07;5.80;;;;;;;;;;5056479;28;20237;-75
2023/09/18 08:59:41;;;;;;;7.83;5.43;;;;;;;;;;5056544;28;20521;-75
2023/09/18 09:02:11;;;;;;;6.33;5.63;;;;;;;;;;5056044;28;20235;-75
2023/09/18 09:04:38;;;;;;;8.67;5.63;;;;;;;;;;5073640;28;20239;-76
2023/09/18 09:07:06;;;;;;;8.27;5.83;;;;;;;;;;5074661;28;20662;-75
2023/09/18 09:09:33;;;;;;;8.33;5.47;;;;;;;;;;5056559;28;20209;-74
2023/09/18 09:15:55;;;;;;;10.27;5.90;;;;;;;;;;5073860;28;20314;-76
2023/09/18 09:18:23;;;;;;;6.60;6.00;;;;;;;;;;5073736;28;20209;-76
2023/09/18 09:20:57;;;;;;;8.60;5.83;;;;;;;;;;5056787;28;20188;-77
2023/09/18 09:23:27;;;;;;;7.90;5.60;;;;;;;;;;5040403;28;20207;-77
2023/09/18 09:25:56;;;;;;;6.00;5.40;;;;;;;;;;5039531;28;20192;-74
2023/09/18 09:32:31;;;;;;;6.73;5.70;;;;;;;;;;5050553;28;20202;-75
2023/09/18 09:35:04;;;;;;;6.30;5.60;;;;;;;;;;5040334;28;20185;-75
2023/09/18 09:37:31;;;;;;;7.67;5.97;;;;;;;;;;5057566;28;20204;-75
2023/09/18 09:43:58;;;;;;;7.63;5.60;;;;;;;;;;5055316;28;20157;-74
2023/09/18 09:46:26;;;;;;;6.57;5.60;;;;;;;;;;5039321;28;20195;-75
2023/09/18 09:49:01;;;;;;;6.23;5.37;;;;;;;;;;5056057;28;20203;-75
2023/09/18 09:51:29;;;;;;;7.40;5.67;;;;;;;;;;5057633;28;20263;-75
2023/09/18 09:53:58;;;;;;;5.60;5.00;;;;;;;;;;5056186;28;20564;-75
2023/09/18 09:56:44;;;;;;;7.23;5.73;;;;;;;;;;5057230;28;20222;-75
2023/09/18 10:03:14;;;;;;;8.00;5.83;;;;;;;;;;5057060;28;20621;-75
2023/09/18 10:09:41;;;;;;;7.03;5.97;;;;;;;;;;5057119;28;20183;-76
2023/09/18 10:16:10;;;;;;;6.00;5.40;;;;;;;;;;5057127;28;20156;-76
2023/09/18 10:19:09;;;;;;;12.30;5.97;;;;;;;;;;5041529;28;20665;-74
2023/09/18 10:21:48;;;;;;;9.97;5.47;;;;;;;;;;5055481;28;20193;-75
2023/09/18 10:24:18;;;;;;;7.50;5.70;;;;;;;;;;5039160;28;20635;-75
2023/09/18 10:26:50;;;;;;;8.53;6.40;;;;;;;;;;5056683;28;20187;-75
2023/09/18 10:29:18;;;;;;;6.60;5.90;;;;;;;;;;5039642;28;20233;-74
2023/09/18 10:31:44;;;;;;;7.33;5.70;;;;;;;;;;5056419;28;20183;-75
2023/09/18 10:34:12;;;;;;;7.57;5.43;;;;;;;;;;5038561;28;20272;-76
2023/09/18 10:36:40;;;;;;;8.93;5.90;;;;;;;;;;5038920;28;20190;-75
2023/09/18 10:39:10;;;;;;;6.07;5.43;;;;;;;;;;5058567;28;20205;-75
2023/09/18 10:41:36;;;;;;;6.50;5.90;;;;;;;;;;5074525;28;20215;-76
2023/09/18 10:44:04;;;;;;;7.10;5.90;;;;;;;;;;5058541;28;20189;-75
2023/09/18 10:46:33;;;;;;;7.47;6.17;;;;;;;;;;5058485;28;20630;-75
2023/09/18 10:49:00;;;;;;;10.90;5.57;;;;;;;;;;5074610;28;20232;-76
2023/09/18 10:51:45;;;;;;;8.33;5.93;;;;;;;;;;5044350;28;20178;-75
2023/09/18 10:54:16;;;;;;;8.93;5.83;;;;;;;;;;5058420;28;20599;-76
2023/09/18 10:56:45;;;;;;;9.50;5.60;;;;;;;;;;5076374;28;20591;-75
2023/09/18 10:59:17;;;;;;;5.63;5.00;;;;;;;;;;5041366;28;20605;-75
2023/09/18 11:01:48;;;;;;;7.83;5.13;;;;;;;;;;5058736;28;20197;-74
2023/09/18 11:04:22;;;;;;;5.50;5.00;;;;;;;;;;5039195;28;20278;-76
2023/09/18 11:06:54;;;;;;;8.03;5.30;;;;;;;;;;5054572;28;20218;-76
2023/09/18 11:09:22;;;;;;;6.23;5.40;;;;;;;;;;5058050;28;20274;-74
2023/09/18 11:15:50;;;;;;;6.63;4.50;;;;;;;;;;5075838;28;20178;-76
2023/09/18 11:22:21;;;;;;;8.50;4.37;;;;;;;;;;5068232;28;20174;-77
2023/09/18 11:25:24;;;;;;;4.77;3.87;;;;;;;;;;5075428;28;20196;-76
2023/09/18 11:31:55;;;;;;;5.53;4.63;;;;;;;;;;5075627;28;20156;-75
2023/09/18 11:38:05;;;;;;;6.10;4.40;;;;;;;;;;5074577;28;20193;-76
2023/09/18 11:40:38;;;;;;;4.37;3.97;;;;;;;;;;5073631;28;20162;-76
2023/09/18 11:47:00;;;;;;;4.70;4.30;;;;;;;;;;5075024;28;20148;-75
2023/09/18 11:49:27;;;;;;;4.73;4.20;;;;;;;;;;5040608;28;20193;-75
2023/09/18 11:51:54;;;;;;;4.23;3.70;;;;;;;;;;5074231;28;20189;-75
2023/09/18 11:54:22;;;;;;;3.50;3.20;;;;;;;;;;5041197;28;20246;-75
2023/09/18 11:57:06;;;;;;;4.63;3.60;;;;;;;;;;5059984;28;20224;-76
2023/09/18 11:59:42;;;;;;;4.17;3.77;;;;;;;;;;5040325;28;20209;-75
2023/09/18 12:02:20;;;;;;;4.07;3.60;;;;;;;;;;5056886;28;20708;-75
2023/09/18 12:04:48;;;;;;;5.13;4.00;;;;;;;;;;5074475;28;20165;-75
2023/09/18 12:07:32;;;;;;;4.13;3.70;;;;;;;;;;5059303;28;20152;-72
2023/09/18 12:09:59;;;;;;;4.77;4.27;;;;;;;;;;5023542;28;20191;-74
2023/09/18 12:12:43;;;;;;;4.97;3.73;;;;;;;;;;5060123;28;20245;-74
2023/09/18 12:19:20;;;;;;;4.40;3.63;;;;;;;;;;5074335;28;20313;-72
2023/09/18 12:21:47;;;;;;;4.97;3.63;;;;;;;;;;5057307;28;20680;-73
2023/09/18 12:24:21;;;;;;;4.47;3.57;;;;;;;;;;5057322;28;20191;-73
2023/09/18 12:26:48;;;;;;;4.77;3.50;;;;;;;;;;5056190;28;20180;-73
2023/09/18 12:29:34;;;;;;;4.50;4.10;;;;;;;;;;5045930;28;20169;-73
2023/09/18 12:32:06;;;;;;;5.07;3.87;;;;;;;;;;5056726;28;20653;-74
2023/09/18 12:34:34;;;;;;;5.10;3.30;;;;;;;;;;5041794;28;20214;-73
2023/09/18 12:37:05;;;;;;;6.17;3.80;;;;;;;;;;5075011;28;20205;-73
2023/09/18 12:39:34;;;;;;;4.40;3.73;;;;;;;;;;5056546;28;20206;-73
2023/09/18 12:42:19;;;;;;;7.03;3.93;;;;;;;;;;5073557;28;20165;-73
2023/09/18 12:44:46;;;;;;;4.50;3.83;;;;;;;;;;5056365;28;20185;-73
2023/09/18 12:47:15;;;;;;;4.70;3.90;;;;;;;;;;5056145;28;20190;-73
2023/09/18 12:49:47;;;;;;;5.73;4.17;;;;;;;;;;5051502;28;20185;-74
2023/09/18 12:52:14;;;;;;;4.70;4.13;;;;;;;;;;5045995;28;20197;-73
2023/09/18 12:54:52;;;;;;;4.77;3.87;;;;;;;;;;5036688;28;20276;-74
2023/09/18 12:57:20;;;;;;;4.77;3.87;;;;;;;;;;5017563;28;20313;-74
2023/09/18 12:59:49;;;;;;;4.20;3.57;;;;;;;;;;5032599;28;20210;-73
2023/09/18 13:02:23;;;;;;;5.20;3.97;;;;;;;;;;5036133;28;20523;-74
2023/09/18 13:04:55;;;;;;;4.33;3.93;;;;;;;;;;5055812;28;20193;-74
2023/09/18 13:07:23;;;;;;;4.33;3.90;;;;;;;;;;5068090;28;20525;-74
2023/09/18 13:10:03;;;;;;;4.43;3.90;;;;;;;;;;5043807;28;20697;-74
2023/09/18 13:12:40;;;;;;;4.40;4.00;;;;;;;;;;5044944;28;20193;-72
2023/09/18 13:15:14;;;;;;;8.70;4.23;;;;;;;;;;5043485;28;20203;-74
2023/09/18 13:17:59;;;;;;;4.60;3.70;;;;;;;;;;5077573;28;20212;-73
2023/09/18 13:20:28;;;;;;;4.43;4.00;;;;;;;;;;5077620;28;20190;-73
2023/09/18 13:22:57;;;;;;;6.87;4.00;;;;;;;;;;5044267;28;20181;-73
2023/09/18 13:25:25;;;;;;;7.20;3.53;;;;;;;;;;5076764;28;20216;-73
2023/09/18 13:27:52;;;;;;;5.30;3.77;;;;;;;;;;5066990;28;20193;-72
2023/09/18 13:30:21;;;;;;;4.50;3.90;;;;;;;;;;5059747;28;20184;-74
2023/09/18 13:32:48;;;;;;;4.97;3.77;;;;;;;;;;5060652;28;20184;-73
2023/09/18 13:35:18;;;;;;;5.97;3.60;;;;;;;;;;5077481;28;20189;-72
2023/09/18 13:38:07;;;;;;;6.10;4.23;;;;;;;;;;5077267;28;20228;-73
2023/09/18 13:40:46;;;;;;;4.93;4.23;;;;;;;;;;5072116;28;20254;-74
2023/09/18 13:43:34;;;;;;;5.73;3.80;;;;;;;;;;5057590;28;20640;-74
2023/09/18 13:46:06;;;;;;;4.50;3.80;;;;;;;;;;5077279;28;20179;-74
2023/09/18 13:52:28;;;;;;;5.77;3.83;;;;;;;;;;5070201;28;20178;-73
2023/09/18 13:55:12;;;;;;;8.27;4.50;;;;;;;;;;5059284;28;20513;-74
2023/09/18 14:01:39;;;;;;;6.03;3.97;;;;;;;;;;5063659;28;20174;-75
2023/09/18 14:04:08;;;;;;;6.13;3.50;;;;;;;;;;5076677;28;20197;-73
2023/09/18 14:10:35;;;;;;;5.20;4.07;;;;;;;;;;5076734;28;20155;-74
2023/09/18 14:13:02;;;;;;;5.77;3.70;;;;;;;;;;5076808;28;20506;-73
2023/09/18 14:18:45;;;;;;;5.47;4.07;;;;;;;;;;5075410;28;20249;-74
2023/09/18 14:21:11;;;;;;;5.60;3.87;;;;;;;;;;5077251;28;20189;-74
2023/09/18 14:27:32;;;;;;;5.87;3.90;;;;;;;;;;5076453;28;20673;-74
2023/09/18 14:30:02;;;;;;;5.70;3.70;;;;;;;;;;5076981;28;20548;-75
2023/09/18 14:32:30;;;;;;;6.10;4.13;;;;;;;;;;5058474;28;20221;-74
2023/09/18 14:35:01;;;;;;;5.53;4.03;;;;;;;;;;5077043;28;20522;-72
2023/09/18 14:37:30;;;;;;;6.43;4.50;;;;;;;;;;5042408;28;20706;-74
2023/09/18 14:39:57;;;;;;;5.33;4.83;;;;;;;;;;5074994;28;20207;-73
2023/09/18 14:42:24;;;;;;;4.97;4.50;;;;;;;;;;5075822;28;20713;-73
2023/09/18 14:44:51;;;;;;;4.90;3.87;;;;;;;;;;5074807;28;20179;-74
2023/09/18 14:47:19;;;;;;;10.50;4.57;;;;;;;;;;5041944;28;20199;-74
2023/09/18 14:49:52;;;;;;;9.17;4.60;;;;;;;;;;5059537;28;20161;-74
2023/09/18 14:52:23;;;;;;;8.67;4.47;;;;;;;;;;5059228;28;20223;-75
2023/09/18 14:54:50;;;;;;;6.27;5.00;;;;;;;;;;5076263;28;20174;-74
2023/09/18 14:57:19;;;;;;;4.93;4.50;;;;;;;;;;5074753;28;20611;-74
2023/09/18 14:59:49;;;;;;;5.40;4.90;;;;;;;;;;5058444;28;20220;-74
2023/09/18 15:02:17;;;;;;;8.27;5.00;;;;;;;;;;5057817;28;20182;-74
2023/09/18 15:04:45;;;;;;;5.20;4.70;;;;;;;;;;5075983;28;20182;-74
2023/09/18 15:07:12;;;;;;;6.87;5.40;;;;;;;;;;5057649;28;20232;-74
2023/09/18 15:09:40;;;;;;;5.87;4.43;;;;;;;;;;5058070;28;20194;-74
2023/09/18 15:12:07;;;;;;;8.83;5.60;;;;;;;;;;5074580;28;20214;-74
2023/09/18 15:14:35;;;;;;;9.13;5.77;;;;;;;;;;5075660;28;20521;-75
2023/09/18 15:17:02;;;;;;;10.03;6.07;;;;;;;;;;5057785;28;20221;-74
2023/09/18 15:19:29;;;;;;;6.80;6.10;;;;;;;;;;5058106;28;20509;-74
2023/09/18 15:21:57;;;;;;;7.40;6.30;;;;;;;;;;5058515;28;20239;-75
2023/09/18 15:24:24;;;;;;;8.20;6.73;;;;;;;;;;5056563;28;20198;-75
2023/09/18 15:26:51;;;;;;;11.27;7.80;;;;;;;;;;5038261;28;20201;-74
2023/09/18 15:29:18;;;;;;;8.13;7.23;;;;;;;;;;5054060;28;20195;-75
2023/09/18 15:31:46;;;;;;;10.63;7.50;;;;;;;;;;5038011;28;20195;-74
2023/09/18 15:38:16;;;;;;;9.57;7.37;;;;;;;;;;5055522;28;20166;-74
2023/09/18 15:40:48;;;;;;;13.13;7.83;;;;;;;;;;5054850;28;20198;-74
2023/09/18 15:43:18;;;;;;;10.00;7.73;;;;;;;;;;5053833;28;20248;-75
2023/09/18 15:45:48;;;;;;;8.57;7.77;;;;;;;;;;5053803;28;20190;-75
2023/09/18 15:48:15;;;;;;;9.70;7.67;;;;;;;;;;5053939;28;20285;-75
2023/09/18 15:50:44;;;;;;;10.00;8.23;;;;;;;;;;5053792;28;20186;-76
2023/09/18 15:53:11;;;;;;;12.07;8.10;;;;;;;;;;5054499;28;20187;-75
2023/09/18 15:55:38;;;;;;;9.77;8.40;;;;;;;;;;5053675;28;20253;-74
2023/09/18 15:58:09;;;;;;;12.17;8.83;;;;;;;;;;5054101;28;20295;-75
2023/09/18 16:00:42;;;;;;;10.83;8.97;;;;;;;;;;5037436;28;20220;-75
2023/09/18 16:03:12;;;;;;;11.80;8.63;;;;;;;;;;5070026;28;20506;-75
2023/09/18 16:05:51;;;;;;;14.43;8.83;;;;;;;;;;5054976;28;20167;-76
2023/09/18 16:08:20;;;;;;;10.97;9.40;;;;;;;;;;5054185;28;20194;-75
2023/09/18 16:10:53;;;;;;;11.40;10.00;;;;;;;;;;5037955;28;20638;-74
2023/09/18 16:13:21;;;;;;;14.13;9.70;;;;;;;;;;5053120;28;20273;-74
2023/09/18 16:15:48;;;;;;;14.73;10.03;;;;;;;;;;5053816;28;20281;-74
2023/09/18 16:18:21;;;;;;;11.00;9.47;;;;;;;;;;5037938;28;20214;-75
2023/09/18 16:20:49;;;;;;;12.27;9.87;;;;;;;;;;5037651;28;20564;-74
2023/09/18 16:23:19;;;;;;;15.20;10.03;;;;;;;;;;5030920;28;20648;-74
2023/09/18 16:25:48;;;;;;;12.77;10.03;;;;;;;;;;5054582;28;20189;-75
2023/09/18 16:28:16;;;;;;;14.90;10.43;;;;;;;;;;5037264;28;20201;-75
2023/09/18 16:30:46;;;;;;;12.37;10.00;;;;;;;;;;5069708;28;20214;-74
2023/09/18 16:33:14;;;;;;;15.07;10.30;;;;;;;;;;5075099;28;20205;-74
2023/09/18 16:35:46;;;;;;;12.20;10.40;;;;;;;;;;5057253;28;20272;-75
2023/09/18 16:38:15;;;;;;;12.60;10.37;;;;;;;;;;5056229;28;20703;-75
2023/09/18 16:40:43;;;;;;;11.63;10.47;;;;;;;;;;5056492;28;20205;-75
2023/09/18 16:43:11;;;;;;;14.40;11.20;;;;;;;;;;5056236;28;20200;-75
2023/09/18 16:45:42;;;;;;;13.47;11.03;;;;;;;;;;5073982;28;20252;-75
2023/09/18 16:48:10;;;;;;;12.43;10.33;;;;;;;;;;5040099;28;20192;-75
2023/09/18 16:50:39;;;;;;;15.37;11.40;;;;;;;;;;5056906;28;20200;-74
2023/09/18 16:53:12;;;;;;;14.27;10.80;;;;;;;;;;5041743;28;20155;-76
2023/09/18 16:55:45;;;;;;;12.43;11.17;;;;;;;;;;5074398;28;20256;-74
2023/09/18 16:58:15;;;;;;;14.47;12.07;;;;;;;;;;5040262;28;20190;-73
2023/09/18 17:00:43;;;;;;;14.97;11.80;;;;;;;;;;5039568;28;20598;-73
2023/09/18 17:03:12;;;;;;;13.77;11.37;;;;;;;;;;5074551;28;20202;-73
2023/09/18 17:05:42;;;;;;;14.13;12.17;;;;;;;;;;5024195;28;20186;-74
2023/09/18 17:08:12;;;;;;;16.90;13.47;;;;;;;;;;5040202;28;20213;-74
2023/09/18 17:10:42;;;;;;;15.90;12.60;;;;;;;;;;5056246;28;20273;-74
2023/09/18 17:13:28;;;;;;;14.67;13.17;;;;;;;;;;5042013;28;20212;-74
2023/09/18 17:15:55;;;;;;;16.20;13.20;;;;;;;;;;5039210;28;20205;-73
2023/09/18 17:18:21;;;;;;;16.10;12.47;;;;;;;;;;5039207;28;20206;-74
2023/09/18 17:20:48;;;;;;;18.27;13.50;;;;;;;;;;5055261;28;20246;-73
2023/09/18 17:23:17;;;;;;;15.00;13.13;;;;;;;;;;5055825;28;20575;-73
2023/09/18 17:25:46;;;;;;;16.40;13.03;;;;;;;;;;5073258;28;20203;-74
2023/09/18 17:28:33;;;;;;;16.13;13.20;;;;;;;;;;5073094;28;20170;-73
2023/09/18 17:31:01;;;;;;;16.03;12.93;;;;;;;;;;5039808;28;20174;-73
2023/09/18 17:33:32;;;;;;;15.77;13.70;;;;;;;;;;5039557;28;20205;-73
2023/09/18 17:36:01;;;;;;;19.63;14.47;;;;;;;;;;5055402;28;20191;-74
2023/09/18 17:38:28;;;;;;;16.83;13.30;;;;;;;;;;5055241;28;20220;-74
2023/09/18 17:40:55;;;;;;;18.27;13.37;;;;;;;;;;5072052;28;20275;-73
2023/09/18 17:43:22;;;;;;;15.93;14.23;;;;;;;;;;5055472;28;20525;-73
2023/09/18 17:45:49;;;;;;;15.57;13.87;;;;;;;;;;5055276;28;20197;-73
2023/09/18 17:48:16;;;;;;;19.27;15.30;;;;;;;;;;5055200;28;20243;-73
2023/09/18 17:50:43;;;;;;;18.00;15.17;;;;;;;;;;5074726;28;20194;-73
2023/09/18 17:53:16;;;;;;;18.50;14.33;;;;;;;;;;5059751;28;20190;-74
2023/09/18 17:55:44;;;;;;;15.93;14.30;;;;;;;;;;5059520;28;20260;-74
2023/09/18 17:58:13;;;;;;;16.30;14.60;;;;;;;;;;5051498;28;20201;-74
2023/09/18 18:00:42;;;;;;;16.20;14.50;;;;;;;;;;5075656;28;20284;-74
2023/09/18 18:03:13;;;;;;;21.17;15.23;;;;;;;;;;5059487;28;20204;-74
2023/09/18 18:05:43;;;;;;;19.63;15.43;;;;;;;;;;5059437;28;20210;-73
2023/09/18 18:08:11;;;;;;;18.87;16.37;;;;;;;;;;5076778;28;20182;-74
2023/09/18 18:10:44;;;;;;;17.87;15.87;;;;;;;;;;5075529;28;20213;-73
2023/09/18 18:13:12;;;;;;;19.00;15.50;;;;;;;;;;5058704;28;20201;-74
2023/09/18 18:15:44;;;;;;;18.97;16.43;;;;;;;;;;5044274;28;20186;-73
2023/09/18 18:18:12;;;;;;;21.37;16.70;;;;;;;;;;5054805;28;20657;-74
2023/09/18 18:20:46;;;;;;;18.00;16.10;;;;;;;;;;5039133;28;20222;-73
2023/09/18 18:23:14;;;;;;;20.00;16.80;;;;;;;;;;5048291;28;20171;-74
2023/09/18 18:25:43;;;;;;;17.37;15.57;;;;;;;;;;5038088;28;20646;-73
2023/09/18 18:28:10;;;;;;;18.07;16.13;;;;;;;;;;5056419;28;20189;-74
2023/09/18 18:30:39;;;;;;;18.47;15.23;;;;;;;;;;5056192;28;20572;-74
2023/09/18 18:41:13;;;;;;;19.70;16.37;;;;;;;;;;5055781;28;20202;-73
2023/09/18 18:43:43;;;;;;;20.60;16.97;;;;;;;;;;5039110;28;20170;-74
2023/09/18 18:46:11;;;;;;;23.00;18.20;;;;;;;;;;5037260;28;20183;-73
2023/09/18 18:48:38;;;;;;;19.03;16.63;;;;;;;;;;5038173;28;20602;-73
2023/09/18 18:51:12;;;;;;;21.80;17.17;;;;;;;;;;5055503;28;20206;-74
2023/09/18 18:53:48;;;;;;;21.87;17.23;;;;;;;;;;5038470;28;20185;-73
2023/09/18 18:56:17;;;;;;;20.27;16.93;;;;;;;;;;5054495;28;20253;-74
2023/09/18 18:58:46;;;;;;;19.97;17.27;;;;;;;;;;5038591;28;20175;-73
2023/09/18 19:01:13;;;;;;;22.37;17.80;;;;;;;;;;5055017;28;20214;-74
2023/09/18 19:03:44;;;;;;;18.50;16.33;;;;;;;;;;5055881;28;20585;-73
2023/09/18 19:06:15;;;;;;;22.80;17.80;;;;;;;;;;5038713;28;20209;-73
2023/09/18 19:08:44;;;;;;;21.53;17.30;;;;;;;;;;5037785;28;20629;-73
2023/09/18 19:11:16;;;;;;;20.67;18.23;;;;;;;;;;5037929;28;20214;-74
2023/09/18 19:13:43;;;;;;;21.10;17.67;;;;;;;;;;5047755;28;20186;-74
2023/09/18 19:16:10;;;;;;;22.70;17.10;;;;;;;;;;5021924;28;20237;-73
2023/09/18 19:18:42;;;;;;;20.57;18.27;;;;;;;;;;5021886;28;20264;-73
2023/09/18 19:21:16;;;;;;;20.93;17.67;;;;;;;;;;5030214;28;20206;-73